24h
KLIENDITUGI:
Saartelennuliinid: +372 58856336 (24/7)
Estairi piletikassa lennujaamas:
+372 6058887; +372 55603687

16.03.2019 Transaviabaltika lend KTB672 Tallinn - Kärdla ja KTB673 Kärdla – Tallinn väljalend jääb ära. Lennu ära jäämise põhjustab ilmastikuolu Kärdla lennuväljal. Reisijatele võimaldatakse tasuta lennupileti ümberbroneerimine reisija soovi kohasele mõnele teisele Tallinn-Kärdla või Kärdla-Tallinn lennule. Reisijatele kes ei soovi lennupileti ümberbroneerimist teisele lennule tagastatakse piletiraha. Oma soovist tuleb teada anda e-mailile [email protected] Lisainformatsioon telefonil 58856336.

EEKA Kärdla lennuväli

FCEO32 EETN 160500 RRA

TAF EEKA 160525Z 1606/1612 14006KT 8000 OVC005

TEMPO 1606/1612 2000 DZ BR BKN003 OVC007=

METAR EEKA 160650Z 15005KT 5000 -DZ BR BKN002 03/03 Q0988=
Kuupäev: 
16/03/2019